Time;durP1;ratioP1;P1;durP2;ratioP2;P2;SDS_P1;SDS_P2;PMS_P1;PMS_P2;Temp;Humidity;BMP_temperature;BMP_pressure;BME280_temperature;BME280_humidity;BME280_pressure;Samples;Min_cycle;Max_cycle;Signal;HPM_P1;HPM_P2
2023/06/09 00:00:11;;;;;;;10.10;4.22;;;25.50;49.80;;;;;;6238162;28;20049;-69
2023/06/09 00:03:12;;;;;;;6.70;4.32;;;25.50;49.70;;;;;;6238351;28;20116;-68
2023/06/09 00:06:16;;;;;;;5.05;3.70;;;25.60;49.60;;;;;;6238908;28;20420;-68
2023/06/09 00:09:18;;;;;;;7.68;4.30;;;25.70;49.50;;;;;;6239003;28;20033;-70
2023/06/09 00:12:18;;;;;;;10.25;3.90;;;25.60;49.40;;;;;;6238674;28;20029;-68
2023/06/09 00:15:20;;;;;;;5.43;4.13;;;25.60;49.50;;;;;;6238727;28;20029;-68
2023/06/09 00:18:24;;;;;;;5.45;4.05;;;25.60;49.60;;;;;;6238494;28;20029;-68
2023/06/09 00:21:25;;;;;;;7.20;4.07;;;25.50;49.80;;;;;;6238493;28;20129;-69
2023/06/09 00:24:26;;;;;;;6.30;4.22;;;25.40;49.90;;;;;;6238253;28;20049;-68
2023/06/09 00:27:26;;;;;;;6.80;4.60;;;25.40;50.10;;;;;;6238716;28;20537;-69
2023/06/09 00:30:27;;;;;;;9.57;4.80;;;25.30;50.10;;;;;;6238710;28;20087;-69
2023/06/09 00:33:28;;;;;;;6.40;4.15;;;25.30;50.10;;;;;;6238357;28;20033;-69
2023/06/09 00:36:29;;;;;;;6.43;3.72;;;25.30;50.20;;;;;;6238284;28;20057;-69
2023/06/09 00:39:30;;;;;;;8.02;3.65;;;25.20;50.20;;;;;;6237031;28;20207;-69
2023/06/09 00:42:31;;;;;;;7.05;4.30;;;25.20;50.30;;;;;;6240755;28;20546;-69
2023/06/09 00:45:34;;;;;;;5.10;3.67;;;25.20;50.30;;;;;;6242756;28;20053;-69
2023/06/09 00:48:36;;;;;;;6.50;3.70;;;25.10;50.10;;;;;;6242729;28;20026;-69
2023/06/09 00:51:38;;;;;;;5.85;3.63;;;25.10;50.20;;;;;;6240942;28;20141;-69
2023/06/09 00:54:40;;;;;;;7.10;3.60;;;25.10;50.30;;;;;;6242417;28;20060;-69
2023/06/09 00:57:43;;;;;;;6.88;4.18;;;25.10;50.40;;;;;;6241381;28;20061;-68
2023/06/09 01:00:43;;;;;;;8.27;4.10;;;25.00;50.40;;;;;;6243279;28;20033;-68
2023/06/09 01:03:46;;;;;;;7.00;4.38;;;25.00;50.50;;;;;;6240662;28;20066;-69
2023/06/09 01:07:20;;;;;;;6.82;4.13;;;25.00;50.60;;;;;;6241048;28;20055;-69
2023/06/09 01:10:28;;;;;;;9.13;4.28;;;24.90;50.80;;;;;;6196553;28;20034;-69
2023/06/09 01:13:54;;;;;;;5.65;4.07;;;24.90;50.80;;;;;;6217555;28;20109;-69
2023/06/09 01:17:12;;;;;;;7.78;4.40;;;24.90;51.60;;;;;;6216181;28;20140;-68
2023/06/09 01:20:16;;;;;;;7.88;4.43;;;24.80;51.10;;;;;;6216233;28;20113;-69
2023/06/09 01:23:37;;;;;;;7.32;4.07;;;24.70;51.20;;;;;;6215414;28;20038;-68
2023/06/09 01:26:40;;;;;;;6.85;3.85;;;24.70;51.50;;;;;;6215711;28;20061;-68
2023/06/09 01:29:43;;;;;;;6.40;4.07;;;24.70;51.60;;;;;;6217610;28;20459;-69
2023/06/09 01:32:45;;;;;;;8.77;4.82;;;24.70;51.80;;;;;;6199601;28;20033;-68
2023/06/09 01:35:47;;;;;;;6.38;4.72;;;24.70;51.80;;;;;;6217273;28;20100;-68
2023/06/09 01:38:48;;;;;;;7.47;3.88;;;24.60;52.00;;;;;;6217380;28;20103;-69
2023/06/09 01:41:49;;;;;;;8.02;5.07;;;24.60;52.20;;;;;;6221074;28;20370;-70
2023/06/09 01:44:49;;;;;;;5.95;4.30;;;24.60;52.30;;;;;;6239818;28;20068;-68
2023/06/09 01:47:50;;;;;;;11.23;4.53;;;24.50;52.40;;;;;;6239519;28;20034;-69
2023/06/09 01:51:13;;;;;;;7.03;4.47;;;24.50;52.60;;;;;;6239496;28;20377;-68
2023/06/09 01:54:21;;;;;;;8.00;4.65;;;24.50;52.70;;;;;;6239632;28;20044;-69
2023/06/09 01:57:38;;;;;;;6.93;4.43;;;24.50;52.70;;;;;;6241380;28;20071;-69
2023/06/09 02:00:42;;;;;;;7.25;4.55;;;24.50;53.00;;;;;;6239844;28;20429;-69
2023/06/09 02:03:46;;;;;;;10.38;4.43;;;24.50;52.90;;;;;;6239598;28;20033;-69
2023/06/09 02:06:47;;;;;;;8.10;4.43;;;24.70;52.80;;;;;;6239224;28;20033;-68
2023/06/09 02:09:49;;;;;;;6.03;4.22;;;24.70;52.60;;;;;;6239413;28;20082;-68
2023/06/09 02:12:50;;;;;;;7.13;4.72;;;24.80;52.50;;;;;;6240565;28;20029;-68
2023/06/09 02:15:51;;;;;;;15.13;4.80;;;24.90;52.40;;;;;;6239420;28;20117;-69
2023/06/09 02:18:53;;;;;;;13.07;4.75;;;24.80;52.30;;;;;;6238514;28;20029;-68
2023/06/09 02:21:54;;;;;;;10.68;5.00;;;24.70;52.40;;;;;;6238544;28;20026;-68
2023/06/09 02:24:55;;;;;;;8.15;4.57;;;24.60;52.60;;;;;;6238512;28;20076;-69
2023/06/09 02:27:56;;;;;;;6.22;4.22;;;24.60;52.80;;;;;;6239116;28;20033;-69
2023/06/09 02:30:57;;;;;;;7.13;4.97;;;24.60;52.90;;;;;;6238695;28;20116;-70
2023/06/09 02:34:01;;;;;;;9.63;4.43;;;24.70;52.90;;;;;;6238576;28;20037;-69
2023/06/09 02:37:07;;;;;;;7.30;4.65;;;24.70;52.80;;;;;;6238761;28;20140;-69
2023/06/09 02:40:09;;;;;;;9.73;4.22;;;24.80;52.80;;;;;;6238677;28;20065;-69
2023/06/09 02:43:09;;;;;;;6.88;4.28;;;24.80;52.60;;;;;;6238123;28;20116;-68
2023/06/09 02:46:12;;;;;;;7.75;4.93;;;24.80;52.50;;;;;;6238674;28;20029;-69
2023/06/09 02:49:13;;;;;;;6.43;4.70;;;24.80;52.40;;;;;;6238209;28;20030;-69
2023/06/09 02:52:15;;;;;;;12.63;4.55;;;24.80;52.50;;;;;;6238070;28;20028;-69
2023/06/09 02:55:18;;;;;;;5.72;4.45;;;24.70;52.60;;;;;;6222064;28;20033;-69
2023/06/09 02:58:24;;;;;;;9.10;4.70;;;24.60;52.70;;;;;;6238260;28;20470;-69
2023/06/09 03:01:28;;;;;;;10.20;4.75;;;24.60;52.80;;;;;;6237998;28;20037;-69
2023/06/09 03:04:32;;;;;;;5.32;4.38;;;24.50;52.80;;;;;;6237514;28;20549;-68
2023/06/09 03:07:34;;;;;;;7.57;5.00;;;24.50;53.00;;;;;;6237807;28;20033;-70
2023/06/09 03:10:36;;;;;;;7.47;5.10;;;24.50;53.10;;;;;;6237860;28;20037;-69
2023/06/09 03:13:36;;;;;;;8.63;5.07;;;24.40;53.10;;;;;;6237773;28;20033;-70
2023/06/09 03:16:37;;;;;;;7.38;4.95;;;24.30;53.30;;;;;;6237714;28;20119;-69
2023/06/09 03:19:38;;;;;;;9.73;4.90;;;24.20;53.60;;;;;;6237826;28;20588;-69
2023/06/09 03:22:40;;;;;;;7.45;4.50;;;24.10;53.90;;;;;;6237254;28;20122;-69
2023/06/09 03:25:42;;;;;;;6.38;3.88;;;24.10;53.90;;;;;;6238000;28;20037;-69
2023/06/09 03:28:46;;;;;;;7.30;4.32;;;24.00;53.70;;;;;;6237726;28;20030;-70
2023/06/09 03:31:49;;;;;;;6.68;4.28;;;24.00;53.60;;;;;;6237604;28;20044;-68
2023/06/09 03:34:50;;;;;;;5.43;3.80;;;24.10;53.60;;;;;;6237957;28;20331;-69
2023/06/09 03:37:51;;;;;;;7.07;4.50;;;23.90;54.20;;;;;;6237453;28;20163;-68
2023/06/09 03:40:52;;;;;;;4.53;3.45;;;23.90;53.60;;;;;;6237451;28;20029;-69
2023/06/09 03:43:55;;;;;;;6.22;4.03;;;23.90;53.60;;;;;;6236861;28;20370;-68
2023/06/09 03:46:56;;;;;;;6.30;3.97;;;23.80;53.60;;;;;;6237187;28;20124;-70
2023/06/09 03:49:57;;;;;;;8.27;4.32;;;23.80;53.80;;;;;;6237323;28;20029;-68
2023/06/09 03:52:58;;;;;;;7.13;4.30;;;23.80;53.80;;;;;;6236957;28;20613;-69
2023/06/09 03:56:00;;;;;;;7.80;4.50;;;23.80;53.80;;;;;;6237530;28;20116;-68
2023/06/09 03:59:01;;;;;;;9.05;4.90;;;23.80;53.80;;;;;;6238943;28;20022;-69
2023/06/09 04:02:03;;;;;;;8.27;4.35;;;23.80;53.90;;;;;;6237185;28;20029;-68
2023/06/09 04:05:04;;;;;;;5.55;4.22;;;23.80;54.00;;;;;;6237243;28;20159;-68
2023/06/09 04:08:06;;;;;;;5.63;4.30;;;23.80;54.00;;;;;;6238509;28;20363;-68
2023/06/09 04:11:08;;;;;;;9.70;4.53;;;23.80;53.90;;;;;;6237126;28;20045;-68
2023/06/09 04:14:09;;;;;;;7.50;4.43;;;23.80;53.90;;;;;;6221694;28;20042;-68
2023/06/09 04:17:11;;;;;;;8.02;5.20;;;23.80;54.00;;;;;;6225318;28;20633;-68
2023/06/09 04:20:12;;;;;;;8.82;4.78;;;23.80;53.80;;;;;;6241803;28;20039;-68
2023/06/09 04:23:16;;;;;;;15.77;4.63;;;23.80;53.70;;;;;;6241619;28;20087;-69
2023/06/09 04:26:21;;;;;;;11.25;4.93;;;23.90;53.70;;;;;;6241732;28;20040;-69
2023/06/09 04:29:23;;;;;;;10.48;4.50;;;23.90;53.60;;;;;;6241648;28;20033;-69
2023/06/09 04:32:24;;;;;;;7.43;4.63;;;23.90;53.60;;;;;;6241546;28;20037;-69
2023/06/09 04:35:27;;;;;;;7.38;4.53;;;24.00;53.50;;;;;;6225194;28;20025;-69
2023/06/09 04:38:32;;;;;;;10.85;4.75;;;24.10;53.50;;;;;;6236186;28;20025;-69
2023/06/09 04:41:35;;;;;;;7.07;4.82;;;24.10;53.30;;;;;;6231341;28;20132;-70
2023/06/09 04:44:36;;;;;;;11.52;4.72;;;24.10;53.20;;;;;;6232947;28;20026;-69
2023/06/09 04:47:37;;;;;;;6.28;4.22;;;24.10;53.20;;;;;;6220297;28;20037;-71
2023/06/09 04:50:39;;;;;;;10.82;5.40;;;24.10;53.20;;;;;;6229131;28;20033;-68
2023/06/09 04:53:42;;;;;;;6.32;4.20;;;24.10;53.20;;;;;;6223220;28;20800;-70
2023/06/09 04:56:44;;;;;;;7.65;4.93;;;24.10;53.20;;;;;;6230411;28;20040;-71
2023/06/09 04:59:47;;;;;;;8.13;5.00;;;24.10;53.20;;;;;;6239668;28;20092;-71
2023/06/09 05:02:51;;;;;;;8.80;5.15;;;24.10;53.10;;;;;;6210048;28;20089;-69
2023/06/09 05:05:52;;;;;;;8.23;4.47;;;24.10;53.10;;;;;;6221359;28;20065;-69
2023/06/09 05:08:57;;;;;;;8.23;4.85;;;24.10;53.10;;;;;;6235151;28;20022;-69
2023/06/09 05:11:58;;;;;;;6.68;4.68;;;24.20;53.20;;;;;;6239893;28;20117;-70
2023/06/09 05:15:00;;;;;;;7.90;4.45;;;24.30;53.00;;;;;;6223591;28;20029;-70
2023/06/09 05:18:01;;;;;;;9.25;4.72;;;24.40;52.70;;;;;;6240281;28;20041;-70
2023/06/09 05:21:03;;;;;;;8.38;4.90;;;24.40;52.70;;;;;;6226686;28;20090;-70
2023/06/09 05:24:05;;;;;;;11.13;5.72;;;24.40;52.80;;;;;;6236989;28;20682;-70
2023/06/09 05:27:06;;;;;;;10.57;4.53;;;24.40;52.80;;;;;;6237920;28;20087;-69
2023/06/09 05:30:07;;;;;;;9.30;4.97;;;24.60;52.80;;;;;;6247701;28;20484;-71
2023/06/09 05:33:17;;;;;;;8.50;5.15;;;24.70;52.50;;;;;;6226543;28;20092;-70
2023/06/09 05:36:18;;;;;;;8.23;4.65;;;24.70;52.10;;;;;;6244218;28;20338;-71
2023/06/09 05:39:24;;;;;;;11.02;4.88;;;24.70;52.10;;;;;;6219219;28;20048;-70
2023/06/09 05:42:25;;;;;;;17.27;4.70;;;24.70;52.10;;;;;;6229252;28;20104;-70
2023/06/09 05:45:26;;;;;;;9.20;4.85;;;24.70;52.10;;;;;;6241199;28;20119;-70
2023/06/09 05:48:27;;;;;;;6.43;4.25;;;24.70;52.20;;;;;;6241329;28;20056;-70
2023/06/09 05:51:27;;;;;;;9.63;4.57;;;24.70;52.00;;;;;;6223114;28;20072;-70
2023/06/09 05:54:28;;;;;;;8.75;4.28;;;24.70;51.90;;;;;;6241118;28;20049;-71
2023/06/09 05:57:32;;;;;;;8.32;4.47;;;24.80;51.80;;;;;;6245918;28;20029;-70
2023/06/09 06:00:33;;;;;;;10.55;5.53;;;24.80;51.80;;;;;;6248017;28;20034;-71
2023/06/09 06:03:34;;;;;;;9.02;5.60;;;24.80;51.60;;;;;;6244415;28;20116;-71
2023/06/09 06:06:37;;;;;;;10.73;5.05;;;24.70;51.50;;;;;;6239351;28;20021;-70
2023/06/09 06:09:38;;;;;;;6.75;4.88;;;24.80;51.50;;;;;;6241873;28;20032;-69
2023/06/09 06:12:39;;;;;;;7.95;4.75;;;24.80;51.40;;;;;;6240682;28;20025;-70
2023/06/09 06:15:40;;;;;;;9.32;5.05;;;24.80;51.50;;;;;;6246570;28;20427;-69
2023/06/09 06:18:41;;;;;;;7.28;4.20;;;24.70;51.40;;;;;;6240876;28;20034;-68
2023/06/09 06:21:42;;;;;;;11.82;5.55;;;24.80;51.50;;;;;;6227644;28;20908;-69
2023/06/09 06:24:43;;;;;;;8.23;4.95;;;24.80;51.20;;;;;;6215459;28;20021;-71
2023/06/09 06:27:44;;;;;;;7.32;4.47;;;24.90;51.10;;;;;;6214461;28;20552;-70
2023/06/09 06:30:45;;;;;;;10.43;4.63;;;24.90;51.00;;;;;;6216384;28;20497;-70
2023/06/09 06:33:46;;;;;;;8.00;4.47;;;25.00;50.90;;;;;;6224726;28;20029;-70
2023/06/09 06:36:47;;;;;;;8.95;4.85;;;25.00;50.90;;;;;;6240882;28;20474;-71
2023/06/09 06:39:48;;;;;;;12.40;5.38;;;25.10;50.90;;;;;;6238782;28;20029;-71
2023/06/09 06:42:49;;;;;;;6.90;4.78;;;25.20;50.80;;;;;;6240389;28;20412;-71
2023/06/09 06:45:58;;;;;;;10.27;4.85;;;25.30;50.60;;;;;;6239351;28;20034;-71
2023/06/09 06:49:00;;;;;;;10.82;5.43;;;25.40;50.50;;;;;;6239539;28;20356;-72
2023/06/09 06:52:01;;;;;;;8.00;4.43;;;25.40;50.40;;;;;;6238749;28;20048;-69
2023/06/09 06:55:02;;;;;;;11.00;4.90;;;25.50;50.20;;;;;;6239022;28;20037;-70
2023/06/09 06:58:03;;;;;;;6.25;4.30;;;25.50;50.20;;;;;;6222461;28;20091;-70
2023/06/09 07:01:04;;;;;;;91.15;9.10;;;25.50;50.20;;;;;;6239786;28;20387;-69
2023/06/09 07:04:05;;;;;;;124.32;11.80;;;25.50;50.20;;;;;;6239855;28;20065;-69
2023/06/09 07:07:06;;;;;;;99.72;10.82;;;25.50;50.30;;;;;;6238254;28;20505;-68
2023/06/09 07:10:09;;;;;;;24.42;6.18;;;25.60;50.30;;;;;;6239946;28;20622;-70
2023/06/09 07:13:10;;;;;;;11.75;5.20;;;25.60;50.10;;;;;;6237898;28;20534;-70
2023/06/09 07:16:11;;;;;;;26.88;5.35;;;25.70;50.00;;;;;;6239791;28;20036;-69
2023/06/09 07:19:12;;;;;;;8.38;4.72;;;25.80;49.90;;;;;;6239657;28;20482;-69
2023/06/09 07:22:13;;;;;;;9.95;4.95;;;25.80;49.70;;;;;;6221343;28;20045;-68
2023/06/09 07:25:14;;;;;;;8.80;5.22;;;25.90;49.70;;;;;;6239604;28;20137;-68
2023/06/09 07:28:15;;;;;;;10.30;5.38;;;26.00;49.70;;;;;;6239718;28;20095;-70
2023/06/09 07:31:16;;;;;;;9.00;4.60;;;26.00;49.70;;;;;;6239590;28;20517;-70
2023/06/09 07:34:17;;;;;;;10.57;4.45;;;26.00;49.90;;;;;;6239225;28;20650;-70
2023/06/09 07:37:20;;;;;;;6.72;4.25;;;26.00;50.00;;;;;;6240691;28;20029;-70
2023/06/09 07:40:21;;;;;;;7.53;4.85;;;26.10;50.10;;;;;;6255072;28;20029;-70
2023/06/09 07:43:23;;;;;;;9.30;5.15;;;26.10;50.10;;;;;;6238944;28;20378;-69
2023/06/09 07:46:24;;;;;;;8.75;4.85;;;26.00;50.10;;;;;;6221092;28;20038;-70
2023/06/09 07:49:26;;;;;;;8.10;4.68;;;26.00;50.30;;;;;;6242090;28;20554;-70
2023/06/09 07:52:27;;;;;;;6.03;4.28;;;25.90;50.60;;;;;;6245476;28;20041;-70
2023/06/09 07:55:28;;;;;;;11.52;4.90;;;25.90;50.80;;;;;;6229426;28;20408;-69
2023/06/09 07:58:30;;;;;;;8.85;4.45;;;25.90;50.90;;;;;;6246262;28;20482;-70
2023/06/09 08:01:32;;;;;;;7.32;4.38;;;26.00;50.80;;;;;;6245607;28;20037;-69
2023/06/09 08:04:32;;;;;;;6.80;4.18;;;26.00;50.60;;;;;;6247375;28;20064;-71
2023/06/09 08:07:33;;;;;;;6.70;4.65;;;26.00;50.50;;;;;;6247352;28;20064;-69
2023/06/09 08:10:34;;;;;;;5.95;4.25;;;26.10;50.40;;;;;;6247293;28;20025;-70
2023/06/09 08:13:35;;;;;;;6.78;4.45;;;26.00;50.30;;;;;;6245825;28;20136;-71
2023/06/09 08:16:37;;;;;;;10.73;5.38;;;25.90;50.40;;;;;;6247483;28;20095;-70
2023/06/09 08:19:38;;;;;;;12.60;4.80;;;25.90;50.60;;;;;;6245720;28;20481;-70
2023/06/09 08:22:39;;;;;;;9.10;5.30;;;25.80;50.80;;;;;;6245553;28;20060;-70
2023/06/09 08:25:40;;;;;;;13.27;5.47;;;25.80;51.00;;;;;;6245072;28;20055;-71
2023/06/09 08:28:41;;;;;;;16.40;6.13;;;25.90;51.10;;;;;;6247226;28;20028;-70
2023/06/09 08:31:42;;;;;;;12.23;5.25;;;25.90;51.10;;;;;;6246801;28;20030;-68
2023/06/09 08:34:43;;;;;;;11.30;5.32;;;25.90;51.10;;;;;;6245493;28;20087;-69
2023/06/09 08:37:44;;;;;;;10.77;5.82;;;25.90;50.90;;;;;;6245690;28;20549;-68
2023/06/09 08:40:46;;;;;;;8.98;5.32;;;25.90;50.80;;;;;;6247244;28;20041;-69
2023/06/09 08:43:47;;;;;;;12.25;5.50;;;26.00;50.90;;;;;;6246587;28;20029;-68
2023/06/09 08:46:49;;;;;;;12.52;4.45;;;26.10;50.70;;;;;;6246771;28;20406;-70
2023/06/09 08:49:53;;;;;;;15.73;5.30;;;26.20;50.50;;;;;;6245666;28;20159;-68
2023/06/09 08:52:55;;;;;;;14.40;4.85;;;26.30;50.40;;;;;;6247668;28;20066;-68
2023/06/09 08:55:58;;;;;;;12.63;4.32;;;26.50;50.20;;;;;;6246661;28;20107;-69
2023/06/09 08:58:59;;;;;;;10.10;4.93;;;26.60;50.00;;;;;;6246886;28;20428;-68
2023/06/09 09:02:02;;;;;;;15.10;4.97;;;26.70;49.90;;;;;;6242844;28;20033;-68
2023/06/09 09:05:03;;;;;;;12.15;4.95;;;26.80;49.80;;;;;;6241450;28;20049;-68
2023/06/09 09:08:04;;;;;;;8.75;4.10;;;26.80;49.60;;;;;;6242635;28;20044;-70
2023/06/09 09:11:05;;;;;;;7.85;3.50;;;26.80;49.60;;;;;;6241223;28;20034;-69
2023/06/09 09:14:09;;;;;;;13.57;4.13;;;26.80;49.60;;;;;;6242837;28;20041;-68
2023/06/09 09:17:11;;;;;;;23.08;5.00;;;26.80;49.60;;;;;;6242304;28;20041;-69
2023/06/09 09:20:14;;;;;;;14.45;4.55;;;26.70;49.80;;;;;;6242806;28;20107;-70
2023/06/09 09:23:16;;;;;;;11.57;4.22;;;26.70;49.90;;;;;;6224147;28;20061;-68
2023/06/09 09:26:25;;;;;;;15.15;3.72;;;26.70;49.90;;;;;;6257889;28;20041;-68
2023/06/09 09:29:29;;;;;;;14.70;4.07;;;26.70;49.90;;;;;;6241436;28;20443;-69
2023/06/09 09:32:30;;;;;;;11.18;4.18;;;26.60;49.90;;;;;;6241824;28;20029;-69
2023/06/09 09:35:31;;;;;;;10.57;4.18;;;26.60;50.70;;;;;;6242398;28;20041;-69
2023/06/09 09:38:42;;;;;;;7.68;3.80;;;26.60;50.20;;;;;;6242717;28;20104;-68
2023/06/09 09:42:07;;;;;;;14.43;4.45;;;26.70;50.40;;;;;;6240344;28;20033;-70
2023/06/09 09:45:09;;;;;;;15.25;4.45;;;26.60;50.50;;;;;;6241875;28;20657;-68
2023/06/09 09:48:12;;;;;;;12.30;4.40;;;26.70;50.70;;;;;;6241802;28;20021;-68
2023/06/09 09:51:12;;;;;;;8.73;4.57;;;26.70;50.80;;;;;;6242119;28;20176;-69
2023/06/09 09:54:13;;;;;;;11.40;4.85;;;26.70;50.90;;;;;;6241799;28;20511;-70
2023/06/09 09:57:14;;;;;;;14.95;4.95;;;26.70;51.00;;;;;;6241120;28;20057;-69
2023/06/09 10:00:17;;;;;;;9.73;4.78;;;26.80;51.10;;;;;;6241495;28;20324;-68
2023/06/09 10:03:19;;;;;;;12.50;4.60;;;26.80;51.30;;;;;;6256202;28;20041;-69
2023/06/09 10:06:24;;;;;;;10.45;4.95;;;26.80;51.30;;;;;;6240022;28;20049;-69
2023/06/09 10:09:25;;;;;;;14.90;5.10;;;26.80;51.40;;;;;;6229224;28;20105;-69
2023/06/09 10:12:26;;;;;;;11.88;5.35;;;26.80;51.40;;;;;;6239462;28;20470;-71
2023/06/09 10:15:28;;;;;;;11.07;4.95;;;26.80;52.10;;;;;;6241094;28;20048;-71
2023/06/09 10:18:28;;;;;;;9.77;4.35;;;26.80;51.40;;;;;;6222786;28;20063;-69
2023/06/09 10:21:31;;;;;;;13.80;5.30;;;26.80;51.50;;;;;;6239025;28;20034;-67
2023/06/09 10:24:33;;;;;;;7.70;4.93;;;26.90;51.50;;;;;;6240661;28;20033;-68
2023/06/09 10:27:35;;;;;;;12.52;5.38;;;27.00;51.40;;;;;;6238733;28;20640;-69
2023/06/09 10:30:37;;;;;;;10.07;5.38;;;27.00;51.30;;;;;;6240662;28;20156;-70
2023/06/09 10:33:43;;;;;;;8.70;4.93;;;27.10;51.40;;;;;;6241108;28;20030;-69
2023/06/09 10:36:45;;;;;;;17.05;5.60;;;27.10;51.30;;;;;;6240820;28;20102;-69
2023/06/09 10:40:01;;;;;;;10.43;5.78;;;27.20;51.20;;;;;;6240708;28;20041;-70
2023/06/09 10:43:25;;;;;;;9.15;5.13;;;27.20;51.30;;;;;;6241161;28;20033;-68
2023/06/09 10:46:46;;;;;;;8.18;5.55;;;27.20;51.20;;;;;;6239881;28;20485;-68
2023/06/09 10:49:51;;;;;;;10.00;5.55;;;27.20;51.30;;;;;;6239406;28;20770;-69
2023/06/09 10:52:54;;;;;;;15.50;6.10;;;27.30;51.20;;;;;;6238674;28;20036;-68
2023/06/09 10:56:33;;;;;;;8.63;6.00;;;27.30;51.20;;;;;;6240148;28;20040;-68
2023/06/09 10:59:52;;;;;;;7.82;5.03;;;27.20;51.30;;;;;;6238748;28;20103;-69
2023/06/09 11:03:29;;;;;;;16.60;5.78;;;27.20;51.20;;;;;;6239726;28;20025;-70
2023/06/09 11:06:30;;;;;;;8.95;5.28;;;27.30;51.00;;;;;;6238377;28;20534;-69
2023/06/09 11:09:31;;;;;;;15.75;5.88;;;27.30;50.90;;;;;;6240029;28;20030;-70
2023/06/09 11:12:47;;;;;;;10.35;5.13;;;27.20;50.90;;;;;;6239588;28;20029;-68
2023/06/09 11:15:57;;;;;;;7.38;5.00;;;27.20;50.90;;;;;;6239553;28;20025;-69
2023/06/09 11:19:21;;;;;;;7.85;5.13;;;27.30;50.90;;;;;;6254202;28;20040;-69
2023/06/09 11:22:22;;;;;;;13.88;5.57;;;27.30;50.70;;;;;;6238358;28;20029;-69
2023/06/09 11:25:26;;;;;;;10.68;5.63;;;27.40;50.60;;;;;;6238062;28;20048;-70
2023/06/09 11:28:27;;;;;;;7.78;5.75;;;27.40;50.50;;;;;;6238957;28;20414;-70
2023/06/09 11:31:28;;;;;;;10.85;5.75;;;27.50;50.50;;;;;;6238616;28;20025;-70
2023/06/09 11:34:49;;;;;;;8.82;5.57;;;27.50;50.30;;;;;;6253829;28;20052;-69
2023/06/09 11:38:11;;;;;;;8.88;5.63;;;27.50;50.30;;;;;;6237415;28;20037;-69
2023/06/09 11:41:13;;;;;;;8.93;5.50;;;27.50;50.20;;;;;;6238440;28;20074;-70
2023/06/09 11:44:14;;;;;;;9.50;5.10;;;27.40;50.20;;;;;;6239022;28;20033;-70
2023/06/09 11:47:28;;;;;;;9.35;5.03;;;27.40;50.30;;;;;;6238281;28;20056;-69
2023/06/09 11:50:46;;;;;;;8.23;4.95;;;27.30;50.40;;;;;;6237201;28;20744;-67
2023/06/09 11:53:48;;;;;;;14.00;5.40;;;27.20;50.30;;;;;;6238240;28;20421;-69
2023/06/09 11:56:49;;;;;;;11.52;5.93;;;27.20;50.30;;;;;;6238764;28;20040;-69
2023/06/09 11:59:49;;;;;;;12.52;6.75;;;27.20;50.80;;;;;;6237060;28;20458;-68
2023/06/09 12:02:51;;;;;;;15.75;5.75;;;27.10;51.20;;;;;;6239416;28;20509;-68
2023/06/09 12:05:52;;;;;;;9.27;5.55;;;27.10;51.40;;;;;;6238813;28;21030;-71
2023/06/09 12:09:18;;;;;;;8.65;5.68;;;27.10;51.50;;;;;;6238607;28;20537;-69
2023/06/09 12:12:18;;;;;;;10.50;5.75;;;27.00;51.60;;;;;;6237123;28;20029;-69
2023/06/09 12:15:21;;;;;;;10.48;5.70;;;27.10;51.60;;;;;;6254034;28;20094;-70
2023/06/09 12:18:22;;;;;;;9.52;5.65;;;27.20;51.70;;;;;;6220641;28;20486;-69
2023/06/09 12:21:23;;;;;;;9.75;5.70;;;27.10;51.70;;;;;;6237489;28;20099;-69
2023/06/09 12:24:27;;;;;;;8.23;5.80;;;27.10;51.70;;;;;;6238854;28;20030;-69
2023/06/09 12:27:28;;;;;;;10.05;5.68;;;27.10;51.90;;;;;;6239221;28;20052;-69
2023/06/09 12:30:38;;;;;;;10.52;5.20;;;27.00;51.90;;;;;;6239595;28;20367;-69
2023/06/09 12:33:47;;;;;;;9.30;5.38;;;27.00;51.90;;;;;;6237166;28;20056;-68
2023/06/09 12:36:48;;;;;;;11.30;6.35;;;27.10;51.70;;;;;;6242553;28;20110;-70
2023/06/09 12:39:49;;;;;;;10.35;6.53;;;27.10;51.60;;;;;;6243651;28;20700;-70
2023/06/09 12:42:50;;;;;;;8.95;5.78;;;27.10;51.60;;;;;;6242170;28;20065;-68
2023/06/09 12:45:55;;;;;;;12.43;7.35;;;27.10;51.60;;;;;;6243455;28;20684;-69
2023/06/09 12:49:02;;;;;;;10.90;5.95;;;27.10;51.50;;;;;;6242162;28;20021;-69
2023/06/09 12:52:03;;;;;;;10.70;5.60;;;27.20;51.40;;;;;;6258550;28;20140;-69
2023/06/09 12:55:04;;;;;;;10.43;5.50;;;27.20;51.30;;;;;;6243752;28;20029;-69
2023/06/09 12:58:07;;;;;;;8.77;5.63;;;27.20;51.10;;;;;;6244111;28;20035;-68
2023/06/09 13:01:08;;;;;;;12.02;5.95;;;27.30;50.90;;;;;;6242534;28;20084;-68
2023/06/09 13:04:09;;;;;;;9.52;5.65;;;27.40;50.80;;;;;;6244326;28;20771;-69
2023/06/09 13:07:10;;;;;;;11.38;5.28;;;27.40;50.60;;;;;;6245059;28;20029;-69
2023/06/09 13:10:11;;;;;;;9.65;5.32;;;27.40;50.60;;;;;;6247809;28;20175;-68
2023/06/09 13:13:13;;;;;;;12.32;5.75;;;27.30;50.60;;;;;;6247635;28;20056;-69
2023/06/09 13:16:13;;;;;;;25.02;6.00;;;27.20;50.70;;;;;;6248007;28;20123;-68
2023/06/09 13:19:14;;;;;;;11.13;5.85;;;27.10;50.70;;;;;;6246731;28;20041;-68
2023/06/09 13:22:15;;;;;;;10.27;6.38;;;27.10;50.90;;;;;;6246555;28;20025;-69
2023/06/09 13:25:16;;;;;;;11.98;5.90;;;27.20;51.00;;;;;;6243681;28;20358;-68
2023/06/09 13:28:18;;;;;;;8.80;5.82;;;27.20;51.00;;;;;;6245728;28;20080;-69
2023/06/09 13:31:19;;;;;;;12.52;6.22;;;27.30;51.00;;;;;;6243456;28;20385;-70
2023/06/09 13:34:20;;;;;;;11.35;6.50;;;27.40;50.90;;;;;;6241884;28;20041;-69
2023/06/09 13:37:21;;;;;;;9.65;6.50;;;27.50;50.80;;;;;;6245469;28;20084;-69
2023/06/09 13:40:22;;;;;;;8.57;5.85;;;27.60;50.70;;;;;;6244014;28;20538;-69
2023/06/09 13:43:23;;;;;;;13.73;6.32;;;27.70;50.60;;;;;;6244140;28;20056;-69
2023/06/09 13:46:24;;;;;;;16.25;6.20;;;27.80;50.60;;;;;;6242976;28;20561;-69
2023/06/09 13:49:24;;;;;;;13.05;5.93;;;27.80;50.60;;;;;;6241058;28;20087;-69
2023/06/09 13:52:25;;;;;;;9.90;5.57;;;27.80;50.60;;;;;;6242552;28;20140;-69
2023/06/09 13:55:26;;;;;;;12.50;6.47;;;27.80;50.60;;;;;;6240885;28;20040;-69
2023/06/09 13:58:27;;;;;;;10.88;6.47;;;27.80;50.60;;;;;;6240338;28;20045;-68
2023/06/09 14:01:29;;;;;;;14.23;6.43;;;27.80;50.60;;;;;;6241810;28;20069;-70
2023/06/09 14:04:30;;;;;;;10.23;6.35;;;27.80;50.70;;;;;;6241150;28;20033;-69
2023/06/09 14:07:31;;;;;;;8.50;6.30;;;27.70;50.70;;;;;;6241055;28;20108;-70
2023/06/09 14:10:32;;;;;;;8.05;5.40;;;27.70;50.80;;;;;;6240122;28;20040;-69
2023/06/09 14:13:33;;;;;;;10.30;5.40;;;27.60;50.70;;;;;;6241223;28;20030;-69
2023/06/09 14:16:34;;;;;;;12.07;6.07;;;27.60;50.70;;;;;;6240802;28;20029;-70
2023/06/09 14:19:35;;;;;;;11.35;6.10;;;27.70;50.70;;;;;;6241571;28;20041;-69
2023/06/09 14:22:36;;;;;;;8.10;5.88;;;27.80;50.60;;;;;;6240895;28;20390;-69
2023/06/09 14:25:38;;;;;;;16.20;5.68;;;27.90;50.40;;;;;;6238995;28;20045;-68
2023/06/09 14:28:40;;;;;;;12.07;5.65;;;27.80;50.30;;;;;;6240347;28;20503;-69
2023/06/09 14:31:41;;;;;;;7.47;5.32;;;27.80;50.40;;;;;;6240795;28;20029;-69
2023/06/09 14:34:42;;;;;;;12.65;6.22;;;27.80;50.40;;;;;;6239291;28;20099;-69
2023/06/09 14:37:42;;;;;;;11.27;6.07;;;27.70;50.50;;;;;;6239473;28;20417;-71
2023/06/09 14:40:43;;;;;;;10.35;7.03;;;27.60;50.50;;;;;;6222176;28;20048;-68
2023/06/09 14:43:44;;;;;;;11.07;6.30;;;27.60;50.50;;;;;;6240503;28;20044;-70
2023/06/09 14:46:45;;;;;;;9.10;6.05;;;27.70;50.50;;;;;;6240893;28;20578;-70
2023/06/09 14:49:46;;;;;;;9.10;5.07;;;27.70;50.50;;;;;;6240847;28;20032;-68
2023/06/09 14:52:48;;;;;;;8.43;5.40;;;27.80;50.40;;;;;;6240430;28;20034;-68
2023/06/09 14:55:49;;;;;;;10.68;7.00;;;27.80;50.20;;;;;;6239103;28;20513;-67
2023/06/09 14:58:50;;;;;;;11.73;6.65;;;27.80;50.20;;;;;;6239649;28;20580;-71
2023/06/09 15:01:51;;;;;;;9.43;5.65;;;27.70;50.30;;;;;;6239863;28;20029;-69
2023/06/09 15:04:52;;;;;;;10.50;6.10;;;27.70;50.40;;;;;;6240781;28;20625;-68
2023/06/09 15:08:03;;;;;;;14.15;7.05;;;27.60;50.30;;;;;;6240065;28;20105;-69
2023/06/09 15:11:04;;;;;;;20.08;7.90;;;27.70;50.40;;;;;;6213852;28;20026;-69
2023/06/09 15:14:05;;;;;;;15.10;7.25;;;27.70;50.40;;;;;;6215323;28;20161;-69
2023/06/09 15:17:06;;;;;;;12.20;6.93;;;27.70;50.60;;;;;;6215316;28;20034;-70
2023/06/09 15:20:09;;;;;;;10.95;6.40;;;27.80;50.70;;;;;;6214148;28;20045;-70
2023/06/09 15:23:11;;;;;;;10.88;6.18;;;27.90;50.60;;;;;;6214835;28;20030;-69
2023/06/09 15:26:12;;;;;;;15.18;6.28;;;28.40;50.20;;;;;;6215278;28;20109;-69
2023/06/09 15:29:13;;;;;;;9.15;5.97;;;28.70;49.30;;;;;;6214663;28;20040;-70
2023/06/09 15:32:14;;;;;;;19.70;6.80;;;29.00;48.70;;;;;;6214956;28;20160;-69
2023/06/09 15:35:15;;;;;;;15.60;6.18;;;28.90;48.50;;;;;;6215097;28;20208;-71
2023/06/09 15:38:17;;;;;;;14.30;6.13;;;28.80;48.60;;;;;;6215645;28;20036;-70
2023/06/09 15:41:19;;;;;;;13.02;5.95;;;28.60;48.80;;;;;;6230546;28;20034;-69
2023/06/09 15:44:19;;;;;;;13.13;5.80;;;28.60;49.00;;;;;;6230307;28;20100;-69
2023/06/09 15:47:20;;;;;;;9.05;5.07;;;28.50;48.90;;;;;;6230092;28;20220;-70